Time;durP1;ratioP1;P1;durP2;ratioP2;P2;SDS_P1;SDS_P2;PMS_P1;PMS_P2;Temp;Humidity;BMP_temperature;BMP_pressure;BME280_temperature;BME280_humidity;BME280_pressure;Samples;Min_cycle;Max_cycle;Signal;HPM_P1;HPM_P2
2023/05/08 00:01:49;;;;;;;16.15;14.45;;;;;;;;;;5024930;28;20404;-76
2023/05/08 00:04:14;;;;;;;15.50;14.02;;;;;;;;;;5024202;28;20033;-77
2023/05/08 00:06:40;;;;;;;15.00;13.57;;;;;;;;;;4989013;28;20088;-77
2023/05/08 00:09:05;;;;;;;16.50;13.07;;;;;;;;;;5025441;28;20494;-77
2023/05/08 00:11:31;;;;;;;57.55;14.70;;;;;;;;;;5025748;28;20076;-76
2023/05/08 00:13:56;;;;;;;32.60;13.48;;;;;;;;;;5005175;28;20041;-76
2023/05/08 00:16:22;;;;;;;43.88;14.70;;;;;;;;;;5024992;28;20033;-77
2023/05/08 00:18:47;;;;;;;83.65;15.27;;;;;;;;;;5025223;28;20430;-77
2023/05/08 00:21:13;;;;;;;24.45;13.05;;;;;;;;;;5027490;28;20111;-76
2023/05/08 00:23:39;;;;;;;52.40;13.40;;;;;;;;;;5023678;28;20034;-77
2023/05/08 00:26:04;;;;;;;18.90;14.05;;;;;;;;;;5028580;28;20033;-77
2023/05/08 00:28:30;;;;;;;15.73;13.27;;;;;;;;;;5027510;28;20045;-77
2023/05/08 00:30:59;;;;;;;15.93;12.52;;;;;;;;;;5027427;28;20037;-76
2023/05/08 00:33:25;;;;;;;14.65;13.18;;;;;;;;;;5029184;28;20091;-76
2023/05/08 00:35:57;;;;;;;16.50;14.07;;;;;;;;;;5011078;28;20068;-76
2023/05/08 00:38:23;;;;;;;15.02;13.55;;;;;;;;;;5024247;28;20682;-76
2023/05/08 00:40:49;;;;;;;15.40;13.80;;;;;;;;;;5010080;28;20029;-76
2023/05/08 00:43:14;;;;;;;14.02;12.73;;;;;;;;;;5008420;28;20066;-76
2023/05/08 00:45:41;;;;;;;14.15;12.85;;;;;;;;;;5007709;28;20068;-76
2023/05/08 00:48:07;;;;;;;14.30;13.00;;;;;;;;;;5028333;28;20239;-76
2023/05/08 00:50:32;;;;;;;14.27;12.88;;;;;;;;;;5009252;28;20037;-76
2023/05/08 00:53:01;;;;;;;12.80;11.70;;;;;;;;;;4991074;28;20047;-76
2023/05/08 00:55:28;;;;;;;13.23;12.13;;;;;;;;;;5026381;28;20042;-76
2023/05/08 00:57:54;;;;;;;12.80;11.65;;;;;;;;;;5009502;28;20039;-77
2023/05/08 01:00:20;;;;;;;14.30;12.75;;;;;;;;;;5024634;28;20037;-76
2023/05/08 01:02:46;;;;;;;14.07;12.88;;;;;;;;;;5005965;28;20041;-76
2023/05/08 01:05:12;;;;;;;13.82;12.52;;;;;;;;;;5007202;28;20048;-77
2023/05/08 01:07:37;;;;;;;15.73;14.10;;;;;;;;;;5010021;28;20517;-77
2023/05/08 01:10:04;;;;;;;14.50;13.20;;;;;;;;;;5006779;28;20094;-76
2023/05/08 01:12:59;;;;;;;19.48;14.32;;;;;;;;;;5027972;28;20057;-76
2023/05/08 01:15:49;;;;;;;14.43;13.13;;;;;;;;;;5005757;28;20033;-77
2023/05/08 01:18:43;;;;;;;14.73;13.45;;;;;;;;;;5023136;28;20029;-76
2023/05/08 01:21:30;;;;;;;14.77;12.73;;;;;;;;;;4991679;28;20508;-76
2023/05/08 01:24:14;;;;;;;13.93;12.68;;;;;;;;;;5006658;28;20037;-77
2023/05/08 01:26:51;;;;;;;14.32;12.93;;;;;;;;;;4990336;28;20042;-76
2023/05/08 01:29:42;;;;;;;15.75;13.75;;;;;;;;;;4992711;28;20438;-76
2023/05/08 01:32:34;;;;;;;14.65;13.20;;;;;;;;;;5024370;28;20037;-76
2023/05/08 01:35:22;;;;;;;14.43;12.95;;;;;;;;;;5005318;28;20046;-77
2023/05/08 01:37:52;;;;;;;15.00;13.65;;;;;;;;;;5012310;28;20036;-77
2023/05/08 01:40:22;;;;;;;13.90;12.60;;;;;;;;;;4992277;28;20098;-76
2023/05/08 01:42:49;;;;;;;;;;;;;;;;;;5021536;28;20044;-76
2023/05/08 01:45:24;;;;;;;13.93;12.63;;;;;;;;;;5008025;28;19917;-76
2023/05/08 01:48:02;;;;;;;15.13;13.68;;;;;;;;;;5026775;28;20044;-76
2023/05/08 01:50:34;;;;;;;16.23;13.82;;;;;;;;;;5026492;28;20511;-75
2023/05/08 01:53:27;;;;;;;15.07;13.55;;;;;;;;;;5008364;28;20253;-75
2023/05/08 01:55:57;;;;;;;16.00;14.38;;;;;;;;;;5024327;28;20022;-76
2023/05/08 01:58:24;;;;;;;15.50;14.00;;;;;;;;;;5008932;28;20037;-76
2023/05/08 02:00:50;;;;;;;18.77;14.70;;;;;;;;;;4986546;28;20724;-76
2023/05/08 02:03:18;;;;;;;16.95;14.43;;;;;;;;;;5007664;28;20043;-76
2023/05/08 02:05:46;;;;;;;19.27;16.50;;;;;;;;;;5007459;28;20025;-75
2023/05/08 02:08:14;;;;;;;17.13;15.10;;;;;;;;;;5006575;28;20073;-76
2023/05/08 02:10:41;;;;;;;20.65;16.38;;;;;;;;;;5008058;28;20056;-76
2023/05/08 02:13:09;;;;;;;19.02;16.85;;;;;;;;;;5007634;28;20069;-76
2023/05/08 02:15:36;;;;;;;16.58;14.88;;;;;;;;;;5026470;28;20044;-76
2023/05/08 02:18:07;;;;;;;29.05;15.45;;;;;;;;;;5015489;28;20037;-76
2023/05/08 02:20:32;;;;;;;15.82;14.20;;;;;;;;;;5010379;28;20033;-76
2023/05/08 02:23:00;;;;;;;18.73;15.40;;;;;;;;;;5030100;28;20037;-76
2023/05/08 02:25:26;;;;;;;17.20;15.18;;;;;;;;;;5015289;28;20043;-76
2023/05/08 02:27:53;;;;;;;16.63;14.98;;;;;;;;;;5007851;28;20477;-76
2023/05/08 02:30:23;;;;;;;16.55;14.18;;;;;;;;;;5025111;28;20116;-75
2023/05/08 02:32:49;;;;;;;15.60;14.00;;;;;;;;;;5008530;28;20026;-76
2023/05/08 02:35:18;;;;;;;15.35;13.98;;;;;;;;;;4992324;28;20547;-76
2023/05/08 02:37:51;;;;;;;16.75;14.95;;;;;;;;;;5022345;28;20420;-76
2023/05/08 02:40:19;;;;;;;16.35;14.30;;;;;;;;;;5025857;28;20033;-76
2023/05/08 02:42:45;;;;;;;16.17;14.57;;;;;;;;;;5006371;28;20057;-76
2023/05/08 02:45:12;;;;;;;15.63;14.02;;;;;;;;;;5004975;28;20037;-76
2023/05/08 02:47:50;;;;;;;19.80;15.23;;;;;;;;;;5008755;28;20116;-76
2023/05/08 02:50:36;;;;;;;16.20;14.70;;;;;;;;;;5023857;28;20120;-76
2023/05/08 02:53:07;;;;;;;21.60;14.52;;;;;;;;;;4988133;28;20029;-76
2023/05/08 02:55:43;;;;;;;18.55;14.98;;;;;;;;;;5006852;28;20076;-76
2023/05/08 02:58:17;;;;;;;16.27;14.57;;;;;;;;;;5005729;28;20036;-76
2023/05/08 03:01:09;;;;;;;16.83;15.13;;;;;;;;;;5025622;28;20056;-77
2023/05/08 03:03:42;;;;;;;16.45;14.82;;;;;;;;;;5006669;28;20037;-77
2023/05/08 03:06:12;;;;;;;19.27;15.82;;;;;;;;;;5022646;28;20034;-77
2023/05/08 03:08:39;;;;;;;15.43;13.93;;;;;;;;;;5025426;28;20208;-77
2023/05/08 03:11:11;;;;;;;20.48;15.63;;;;;;;;;;5008331;28;20034;-76
2023/05/08 03:13:39;;;;;;;17.02;15.32;;;;;;;;;;5008375;28;20029;-76
2023/05/08 03:16:16;;;;;;;18.50;15.70;;;;;;;;;;5022406;28;20120;-77
2023/05/08 03:18:48;;;;;;;18.45;15.25;;;;;;;;;;5008253;28;20504;-76
2023/05/08 03:21:18;;;;;;;18.23;15.68;;;;;;;;;;5005444;28;20045;-76
2023/05/08 03:23:46;;;;;;;42.47;16.83;;;;;;;;;;5005867;28;20053;-77
2023/05/08 03:26:17;;;;;;;16.15;14.55;;;;;;;;;;5009905;28;20111;-76
2023/05/08 03:28:43;;;;;;;16.50;14.75;;;;;;;;;;5004583;28;20037;-76
2023/05/08 03:31:10;;;;;;;21.95;14.75;;;;;;;;;;5024170;28;20168;-76
2023/05/08 03:33:37;;;;;;;66.88;13.73;;;;;;;;;;4987132;28;20331;-76
2023/05/08 03:36:03;;;;;;;17.08;13.15;;;;;;;;;;5009134;28;20040;-75
2023/05/08 03:38:29;;;;;;;18.00;14.63;;;;;;;;;;5005366;28;20037;-76
2023/05/08 03:40:55;;;;;;;16.00;14.13;;;;;;;;;;5005965;28;20568;-75
2023/05/08 03:43:21;;;;;;;16.05;14.45;;;;;;;;;;4988027;28;20132;-76
2023/05/08 03:45:47;;;;;;;16.20;13.98;;;;;;;;;;5011627;28;20071;-76
2023/05/08 03:48:15;;;;;;;15.93;14.32;;;;;;;;;;5006277;28;20048;-76
2023/05/08 03:50:42;;;;;;;16.67;14.57;;;;;;;;;;5023457;28;20033;-76
2023/05/08 03:53:09;;;;;;;15.63;14.10;;;;;;;;;;5006202;28;20030;-76
2023/05/08 03:55:35;;;;;;;15.52;14.05;;;;;;;;;;5010145;28;20092;-76
2023/05/08 03:58:30;;;;;;;16.15;14.40;;;;;;;;;;5011606;28;20029;-76
2023/05/08 04:01:17;;;;;;;17.50;14.27;;;;;;;;;;5026428;28;20112;-76
2023/05/08 04:04:00;;;;;;;15.82;14.23;;;;;;;;;;5009102;28;20040;-76
2023/05/08 04:06:27;;;;;;;16.85;15.02;;;;;;;;;;5009907;28;20046;-76
2023/05/08 04:09:23;;;;;;;17.58;15.68;;;;;;;;;;5010028;28;20655;-76
2023/05/08 04:11:55;;;;;;;16.38;14.80;;;;;;;;;;4994214;28;20037;-76
2023/05/08 04:14:24;;;;;;;18.38;16.38;;;;;;;;;;5010259;28;20056;-76
2023/05/08 04:16:53;;;;;;;20.40;16.35;;;;;;;;;;5011878;28;20099;-75
2023/05/08 04:19:23;;;;;;;;;;;;;;;;;;4989560;28;20045;-76
2023/05/08 04:21:49;;;;;;;;;;;;;;;;;;5009608;28;20418;-76
2023/05/08 04:24:16;;;;;;;14.38;13.10;;;;;;;;;;5011151;28;19967;-76
2023/05/08 04:26:45;;;;;;;15.60;14.17;;;;;;;;;;4986727;28;20084;-76
2023/05/08 04:29:11;;;;;;;17.15;15.27;;;;;;;;;;5008285;28;20033;-76
2023/05/08 04:31:39;;;;;;;15.48;13.98;;;;;;;;;;5009905;28;20045;-76
2023/05/08 04:34:08;;;;;;;17.20;15.50;;;;;;;;;;5008834;28;20396;-76
2023/05/08 04:36:34;;;;;;;16.35;14.88;;;;;;;;;;4993031;28;20037;-76
2023/05/08 04:39:01;;;;;;;16.63;15.02;;;;;;;;;;5011236;28;20037;-76
2023/05/08 04:41:27;;;;;;;15.90;14.30;;;;;;;;;;5009658;28;20072;-76
2023/05/08 04:43:53;;;;;;;17.42;15.63;;;;;;;;;;5015580;28;20029;-76
2023/05/08 04:46:19;;;;;;;17.00;15.40;;;;;;;;;;5011359;28;20092;-76
2023/05/08 04:48:44;;;;;;;17.60;15.65;;;;;;;;;;5011292;28;20037;-76
2023/05/08 04:51:10;;;;;;;17.40;15.65;;;;;;;;;;5011028;28;20055;-76
2023/05/08 04:53:36;;;;;;;17.38;15.20;;;;;;;;;;5011089;28;20037;-76
2023/05/08 04:56:02;;;;;;;17.85;16.02;;;;;;;;;;5011214;28;20124;-76
2023/05/08 04:58:28;;;;;;;16.40;14.70;;;;;;;;;;5025442;28;21533;-76
2023/05/08 05:00:54;;;;;;;16.52;15.00;;;;;;;;;;5011022;28;20032;-76
2023/05/08 05:03:20;;;;;;;18.73;15.75;;;;;;;;;;5010917;28;20095;-76
2023/05/08 05:05:46;;;;;;;16.77;15.25;;;;;;;;;;4988554;28;20033;-76
2023/05/08 05:08:12;;;;;;;18.35;15.27;;;;;;;;;;5008944;28;20049;-76
2023/05/08 05:10:38;;;;;;;16.67;15.07;;;;;;;;;;5010811;28;20098;-75
2023/05/08 05:13:04;;;;;;;42.17;15.38;;;;;;;;;;5011246;28;20458;-75
2023/05/08 05:15:32;;;;;;;36.65;14.45;;;;;;;;;;5009010;28;20037;-76
2023/05/08 05:17:58;;;;;;;33.25;13.00;;;;;;;;;;5008872;28;20033;-76
2023/05/08 05:20:24;;;;;;;24.00;15.32;;;;;;;;;;5010382;28;20060;-76
2023/05/08 05:22:49;;;;;;;26.13;14.07;;;;;;;;;;5011255;28;20069;-76
2023/05/08 05:25:15;;;;;;;16.15;14.65;;;;;;;;;;4992800;28;20045;-76
2023/05/08 05:27:41;;;;;;;16.08;14.57;;;;;;;;;;5008128;28;20057;-75
2023/05/08 05:30:07;;;;;;;15.65;14.15;;;;;;;;;;5010465;28;20724;-76
2023/05/08 05:32:33;;;;;;;15.77;14.25;;;;;;;;;;5010713;28;20493;-76
2023/05/08 05:34:59;;;;;;;14.70;13.20;;;;;;;;;;5010582;28;20068;-76
2023/05/08 05:37:24;;;;;;;15.40;13.93;;;;;;;;;;5009140;28;20038;-75
2023/05/08 05:39:52;;;;;;;15.30;13.95;;;;;;;;;;5010082;28;20595;-77
2023/05/08 05:42:18;;;;;;;14.25;13.05;;;;;;;;;;5010324;28;20075;-77
2023/05/08 05:44:43;;;;;;;15.63;14.13;;;;;;;;;;4990132;28;20041;-76
2023/05/08 05:47:09;;;;;;;14.77;13.02;;;;;;;;;;5009782;28;20087;-76
2023/05/08 05:49:36;;;;;;;17.75;14.30;;;;;;;;;;5010077;28;20029;-75
2023/05/08 05:52:02;;;;;;;16.30;14.45;;;;;;;;;;5008943;28;20514;-76
2023/05/08 05:54:27;;;;;;;15.63;13.85;;;;;;;;;;5007992;28;20667;-76
2023/05/08 05:56:54;;;;;;;15.18;13.88;;;;;;;;;;5009957;28;20037;-75
2023/05/08 05:59:19;;;;;;;15.73;14.23;;;;;;;;;;5009665;28;20049;-75
2023/05/08 06:01:45;;;;;;;14.30;13.10;;;;;;;;;;4992932;28;20052;-74
2023/05/08 06:04:11;;;;;;;13.85;12.65;;;;;;;;;;5025975;28;20485;-76
2023/05/08 06:06:38;;;;;;;14.88;13.63;;;;;;;;;;5009774;28;20038;-75
2023/05/08 06:09:03;;;;;;;14.40;13.20;;;;;;;;;;5009510;28;20056;-75
2023/05/08 06:11:29;;;;;;;14.07;12.77;;;;;;;;;;5027566;28;20044;-76
2023/05/08 06:13:55;;;;;;;14.07;12.77;;;;;;;;;;5007838;28;20046;-74
2023/05/08 06:16:21;;;;;;;14.30;13.00;;;;;;;;;;5008461;28;20076;-75
2023/05/08 06:18:47;;;;;;;13.93;12.63;;;;;;;;;;5008587;28;20068;-76
2023/05/08 06:21:13;;;;;;;13.60;12.20;;;;;;;;;;5008592;28;20071;-76
2023/05/08 06:23:38;;;;;;;13.40;12.20;;;;;;;;;;5005458;28;20052;-76
2023/05/08 06:26:04;;;;;;;12.70;11.75;;;;;;;;;;4993110;28;20036;-74
2023/05/08 06:28:29;;;;;;;14.25;12.88;;;;;;;;;;5009245;28;20128;-76
2023/05/08 06:30:55;;;;;;;12.57;11.38;;;;;;;;;;5007427;28;20035;-77
2023/05/08 06:33:20;;;;;;;10.45;9.65;;;;;;;;;;5025418;28;20121;-75
2023/05/08 06:35:47;;;;;;;10.70;9.80;;;;;;;;;;5009349;28;20037;-76
2023/05/08 06:38:13;;;;;;;10.88;10.02;;;;;;;;;;5008171;28;20049;-76
2023/05/08 06:40:43;;;;;;;10.90;9.90;;;;;;;;;;5022699;28;20392;-74
2023/05/08 06:43:08;;;;;;;10.68;9.60;;;;;;;;;;5006968;28;20400;-75
2023/05/08 06:45:34;;;;;;;9.77;8.88;;;;;;;;;;5025968;28;20116;-75
2023/05/08 06:47:59;;;;;;;11.27;10.18;;;;;;;;;;5027891;28;20037;-76
2023/05/08 06:50:25;;;;;;;10.57;9.70;;;;;;;;;;5025030;28;20039;-75
2023/05/08 06:52:51;;;;;;;10.77;9.77;;;;;;;;;;5009389;28;20064;-76
2023/05/08 06:55:16;;;;;;;9.90;9.00;;;;;;;;;;5027104;28;20051;-76
2023/05/08 06:57:42;;;;;;;10.45;9.65;;;;;;;;;;5025303;28;20029;-77
2023/05/08 07:00:08;;;;;;;10.43;9.20;;;;;;;;;;5026607;28;20440;-76
2023/05/08 07:02:34;;;;;;;10.25;9.30;;;;;;;;;;5027017;28;20049;-75
2023/05/08 07:04:59;;;;;;;10.27;9.45;;;;;;;;;;5025760;28;20064;-76
2023/05/08 07:07:25;;;;;;;10.80;9.85;;;;;;;;;;5010948;28;20041;-76
2023/05/08 07:09:50;;;;;;;9.88;9.10;;;;;;;;;;5038628;28;20029;-76
2023/05/08 07:12:16;;;;;;;9.55;8.82;;;;;;;;;;5039449;28;20049;-76
2023/05/08 07:14:42;;;;;;;10.00;9.00;;;;;;;;;;5027756;28;20044;-77
2023/05/08 07:17:08;;;;;;;9.32;8.52;;;;;;;;;;5024159;28;20041;-76
2023/05/08 07:19:35;;;;;;;9.40;8.68;;;;;;;;;;5027203;28;20041;-76
2023/05/08 07:22:01;;;;;;;8.57;7.95;;;;;;;;;;5008508;28;20032;-77
2023/05/08 07:24:26;;;;;;;9.75;8.90;;;;;;;;;;5023011;28;20108;-76
2023/05/08 07:26:52;;;;;;;8.45;7.75;;;;;;;;;;5026119;28;20025;-76
2023/05/08 07:29:19;;;;;;;10.45;9.57;;;;;;;;;;5009566;28;20048;-75
2023/05/08 07:31:45;;;;;;;11.82;9.20;;;;;;;;;;5029870;28;20041;-75
2023/05/08 07:34:11;;;;;;;9.93;9.07;;;;;;;;;;5028424;28;20065;-76
2023/05/08 07:36:37;;;;;;;9.75;8.93;;;;;;;;;;5030640;28;20095;-75
2023/05/08 07:39:03;;;;;;;11.13;10.13;;;;;;;;;;5028943;28;20052;-75
2023/05/08 07:41:28;;;;;;;9.93;9.07;;;;;;;;;;5009126;28;20030;-77
2023/05/08 07:43:54;;;;;;;10.70;9.80;;;;;;;;;;5012760;28;20041;-77
2023/05/08 07:46:20;;;;;;;10.45;9.55;;;;;;;;;;5026064;28;20444;-76
2023/05/08 07:48:46;;;;;;;16.70;10.27;;;;;;;;;;5010671;28;20033;-76
2023/05/08 07:51:12;;;;;;;10.35;9.55;;;;;;;;;;5010840;28;20567;-77
2023/05/08 07:53:38;;;;;;;11.25;10.15;;;;;;;;;;5029650;28;20815;-76
2023/05/08 07:56:04;;;;;;;11.57;10.50;;;;;;;;;;5010674;28;20048;-75
2023/05/08 07:58:30;;;;;;;10.95;9.73;;;;;;;;;;5029704;28;20040;-77
2023/05/08 08:00:55;;;;;;;11.18;10.07;;;;;;;;;;5010328;28;20037;-76
2023/05/08 08:03:21;;;;;;;9.95;9.05;;;;;;;;;;5031646;28;20080;-76
2023/05/08 08:05:46;;;;;;;12.55;9.68;;;;;;;;;;5031028;28;20480;-77
2023/05/08 08:08:12;;;;;;;12.43;10.90;;;;;;;;;;5027533;28;20132;-76
2023/05/08 08:10:38;;;;;;;10.45;9.40;;;;;;;;;;5030427;28;20045;-77
2023/05/08 08:13:04;;;;;;;11.63;10.48;;;;;;;;;;5029519;28;20072;-77
2023/05/08 08:15:30;;;;;;;10.55;9.55;;;;;;;;;;5012265;28;20073;-77
2023/05/08 08:17:57;;;;;;;12.20;10.80;;;;;;;;;;4994573;28;20447;-76
2023/05/08 08:20:22;;;;;;;11.27;10.13;;;;;;;;;;5012201;28;21605;-74
2023/05/08 08:22:48;;;;;;;12.30;11.10;;;;;;;;;;5028266;28;20530;-75
2023/05/08 08:25:14;;;;;;;11.52;10.32;;;;;;;;;;5027655;28;20108;-78
2023/05/08 08:27:40;;;;;;;12.00;10.73;;;;;;;;;;5029434;28;20044;-77
2023/05/08 08:30:06;;;;;;;16.15;10.90;;;;;;;;;;5029343;28;20037;-76
2023/05/08 08:32:32;;;;;;;12.77;11.48;;;;;;;;;;5025720;28;20037;-75
2023/05/08 08:34:57;;;;;;;12.25;11.15;;;;;;;;;;5010368;28;20128;-77
2023/05/08 08:37:25;;;;;;;11.05;9.98;;;;;;;;;;5030109;28;20090;-75
2023/05/08 08:39:50;;;;;;;12.73;11.43;;;;;;;;;;5028962;28;20037;-75
2023/05/08 08:42:16;;;;;;;13.27;11.07;;;;;;;;;;5028137;28;20048;-77
2023/05/08 08:44:42;;;;;;;14.25;10.93;;;;;;;;;;5027866;28;20029;-77
2023/05/08 08:47:10;;;;;;;12.75;11.10;;;;;;;;;;5032737;28;20378;-77
2023/05/08 08:49:41;;;;;;;11.48;10.30;;;;;;;;;;5005935;28;20491;-77
2023/05/08 08:52:31;;;;;;;14.85;11.05;;;;;;;;;;5025129;28;20056;-75
2023/05/08 08:55:02;;;;;;;13.00;10.48;;;;;;;;;;5011175;28;20044;-77
2023/05/08 08:57:32;;;;;;;15.65;10.88;;;;;;;;;;5010724;28;20653;-76
2023/05/08 09:00:02;;;;;;;9.98;9.07;;;;;;;;;;5008762;28;20160;-78
2023/05/08 09:02:30;;;;;;;12.45;10.00;;;;;;;;;;5025816;28;20791;-77
2023/05/08 09:04:57;;;;;;;10.57;9.40;;;;;;;;;;5029046;28;20053;-76
2023/05/08 09:07:23;;;;;;;11.73;10.50;;;;;;;;;;5029281;28;20041;-76
2023/05/08 09:09:49;;;;;;;11.15;9.90;;;;;;;;;;5027154;28;20040;-78
2023/05/08 09:12:15;;;;;;;14.27;10.85;;;;;;;;;;5027954;28;20125;-76
2023/05/08 09:14:41;;;;;;;12.68;11.00;;;;;;;;;;5012373;28;20113;-77
2023/05/08 09:17:07;;;;;;;12.30;11.00;;;;;;;;;;5006772;28;20065;-77
2023/05/08 09:19:34;;;;;;;11.98;10.68;;;;;;;;;;5028105;28;20036;-76
2023/05/08 09:22:00;;;;;;;11.30;10.20;;;;;;;;;;5031728;28;20416;-76
2023/05/08 09:24:58;;;;;;;10.77;9.68;;;;;;;;;;5010164;28;20038;-77
2023/05/08 09:27:26;;;;;;;12.82;10.52;;;;;;;;;;5027042;28;20049;-77
2023/05/08 09:30:05;;;;;;;11.18;10.02;;;;;;;;;;5027522;28;20116;-76
2023/05/08 09:32:37;;;;;;;10.25;9.20;;;;;;;;;;5024593;28;20045;-78
2023/05/08 09:35:04;;;;;;;12.48;10.70;;;;;;;;;;5017276;28;20029;-78
2023/05/08 09:37:30;;;;;;;14.65;11.57;;;;;;;;;;4993547;28;20102;-80
2023/05/08 09:40:19;;;;;;;11.68;10.20;;;;;;;;;;5026442;28;20033;-80
2023/05/08 09:42:47;;;;;;;11.52;10.30;;;;;;;;;;5023726;28;20025;-79
2023/05/08 09:45:34;;;;;;;12.45;10.68;;;;;;;;;;5009645;28;20041;-77
2023/05/08 09:47:59;;;;;;;12.13;10.23;;;;;;;;;;5023522;28;20103;-77
2023/05/08 09:50:26;;;;;;;12.48;10.82;;;;;;;;;;5009247;28;20489;-77
2023/05/08 09:52:53;;;;;;;12.85;10.02;;;;;;;;;;4991613;28;20523;-78
2023/05/08 09:55:19;;;;;;;12.30;9.90;;;;;;;;;;5026774;28;20052;-78
2023/05/08 09:57:57;;;;;;;12.65;10.15;;;;;;;;;;5008057;28;20128;-77
2023/05/08 10:00:24;;;;;;;12.32;10.27;;;;;;;;;;5005822;28;20041;-79
2023/05/08 10:02:57;;;;;;;10.18;9.15;;;;;;;;;;5008584;28;20045;-78
2023/05/08 10:05:35;;;;;;;11.02;9.82;;;;;;;;;;5025918;28;20042;-79
2023/05/08 10:08:20;;;;;;;14.18;9.65;;;;;;;;;;5005757;28;20045;-79
2023/05/08 10:10:46;;;;;;;9.93;8.93;;;;;;;;;;5024521;28;20042;-79
2023/05/08 10:13:12;;;;;;;11.02;8.82;;;;;;;;;;5025514;28;20500;-78
2023/05/08 10:15:41;;;;;;;13.70;9.63;;;;;;;;;;5024819;28;20520;-78
2023/05/08 10:18:07;;;;;;;15.90;10.38;;;;;;;;;;5023814;28;20060;-77
2023/05/08 10:20:34;;;;;;;13.20;11.35;;;;;;;;;;5024965;28;20033;-79
2023/05/08 10:23:02;;;;;;;12.75;9.90;;;;;;;;;;5005828;28;20037;-78
2023/05/08 10:25:32;;;;;;;12.30;11.05;;;;;;;;;;5023024;28;20099;-79
2023/05/08 10:28:06;;;;;;;14.10;10.25;;;;;;;;;;5022482;28;20040;-80
2023/05/08 10:30:36;;;;;;;11.30;9.90;;;;;;;;;;5023355;28;20045;-79
2023/05/08 10:33:08;;;;;;;13.00;10.48;;;;;;;;;;5021350;28;20033;-78
2023/05/08 10:35:36;;;;;;;12.60;10.48;;;;;;;;;;5024498;28;20588;-79
2023/05/08 10:38:03;;;;;;;11.63;10.13;;;;;;;;;;5003636;28;20607;-77
2023/05/08 10:40:28;;;;;;;15.73;11.20;;;;;;;;;;5006813;28;20045;-77
2023/05/08 10:42:56;;;;;;;13.20;10.63;;;;;;;;;;5024994;28;20068;-77
2023/05/08 10:45:23;;;;;;;12.75;10.60;;;;;;;;;;5008649;28;20165;-76
2023/05/08 10:48:04;;;;;;;14.27;10.95;;;;;;;;;;5007165;28;20418;-76
2023/05/08 10:50:53;;;;;;;12.38;10.30;;;;;;;;;;5026333;28;20084;-75
2023/05/08 10:53:27;;;;;;;;;;;;;;;;;;5026842;28;20067;-77
2023/05/08 10:55:54;;;;;;;11.73;10.02;;;;;;;;;;5026134;28;19917;-77
2023/05/08 10:58:22;;;;;;;13.02;10.95;;;;;;;;;;5024662;28;20037;-77
2023/05/08 11:00:48;;;;;;;10.87;9.77;;;;;;;;;;5027106;28;20041;-75
2023/05/08 11:03:16;;;;;;;14.27;10.23;;;;;;;;;;5007434;28;20437;-76
2023/05/08 11:05:46;;;;;;;11.30;9.95;;;;;;;;;;5020951;28;20030;-75
2023/05/08 11:08:21;;;;;;;11.00;9.85;;;;;;;;;;5019585;28;20033;-75
2023/05/08 11:10:52;;;;;;;11.73;9.65;;;;;;;;;;5024348;28;20568;-76
2023/05/08 11:13:25;;;;;;;10.05;9.05;;;;;;;;;;5024695;28;20781;-77
2023/05/08 11:15:50;;;;;;;9.73;8.82;;;;;;;;;;5023587;28;20100;-76
2023/05/08 11:18:21;;;;;;;12.93;9.95;;;;;;;;;;4991895;28;20676;-76
2023/05/08 11:21:04;;;;;;;10.45;9.45;;;;;;;;;;5025463;28;20034;-75
2023/05/08 11:23:35;;;;;;;11.07;9.88;;;;;;;;;;5005637;28;20378;-76
2023/05/08 11:26:03;;;;;;;11.35;10.25;;;;;;;;;;5021263;28;20037;-75
2023/05/08 11:28:36;;;;;;;10.82;9.82;;;;;;;;;;5020855;28;20099;-75
2023/05/08 11:31:03;;;;;;;15.95;11.18;;;;;;;;;;5021828;28;20413;-77
2023/05/08 11:33:31;;;;;;;12.00;10.77;;;;;;;;;;5022915;28;20110;-75
2023/05/08 11:36:15;;;;;;;12.97;11.63;;;;;;;;;;5022139;28;20044;-75
2023/05/08 11:38:42;;;;;;;12.82;10.50;;;;;;;;;;5026480;28;20304;-75
2023/05/08 11:41:24;;;;;;;12.63;11.20;;;;;;;;;;4994153;28;20075;-77
2023/05/08 11:44:07;;;;;;;16.58;11.35;;;;;;;;;;5026414;28;20079;-76
2023/05/08 11:46:47;;;;;;;11.40;10.30;;;;;;;;;;5007216;28;20401;-75
2023/05/08 11:49:17;;;;;;;11.90;10.25;;;;;;;;;;5032099;28;20057;-75
2023/05/08 11:51:48;;;;;;;12.88;11.30;;;;;;;;;;5032093;28;20033;-75
2023/05/08 11:54:17;;;;;;;11.07;10.00;;;;;;;;;;5028191;28;20064;-76
2023/05/08 11:56:45;;;;;;;12.70;10.37;;;;;;;;;;5024701;28;20038;-77
2023/05/08 11:59:12;;;;;;;11.57;10.48;;;;;;;;;;5026079;28;20473;-76
2023/05/08 12:01:37;;;;;;;10.45;9.35;;;;;;;;;;5026848;28;20409;-75
2023/05/08 12:04:09;;;;;;;11.52;10.32;;;;;;;;;;5023746;28;20456;-77
2023/05/08 12:06:39;;;;;;;12.25;10.55;;;;;;;;;;5007773;28;20029;-75
2023/05/08 12:09:16;;;;;;;11.50;10.40;;;;;;;;;;5008679;28;20044;-75
2023/05/08 12:11:44;;;;;;;14.15;10.82;;;;;;;;;;5026371;28;20071;-74
2023/05/08 12:14:11;;;;;;;12.05;10.38;;;;;;;;;;5025333;28;20120;-76
2023/05/08 12:16:37;;;;;;;12.07;10.45;;;;;;;;;;5028735;28;20389;-75
2023/05/08 12:19:03;;;;;;;11.07;9.98;;;;;;;;;;5025067;28;20048;-75
2023/05/08 12:21:29;;;;;;;10.55;9.55;;;;;;;;;;5028468;28;20040;-78
2023/05/08 12:23:55;;;;;;;11.48;10.38;;;;;;;;;;5026940;28;20029;-75
2023/05/08 12:26:21;;;;;;;10.55;9.48;;;;;;;;;;5029451;28;20029;-75
2023/05/08 12:28:53;;;;;;;10.35;9.25;;;;;;;;;;5028036;28;20087;-74
2023/05/08 12:31:19;;;;;;;11.07;10.07;;;;;;;;;;5008879;28;20042;-76
2023/05/08 12:33:45;;;;;;;11.30;10.10;;;;;;;;;;4995881;28;20448;-76
2023/05/08 12:36:10;;;;;;;11.05;9.95;;;;;;;;;;5011710;28;20757;-76
2023/05/08 12:38:36;;;;;;;10.38;9.35;;;;;;;;;;5028262;28;20457;-78
2023/05/08 12:41:05;;;;;;;11.80;9.63;;;;;;;;;;5026050;28;20029;-75
2023/05/08 12:43:34;;;;;;;10.60;9.50;;;;;;;;;;5027765;28;20044;-76
2023/05/08 12:46:02;;;;;;;11.35;10.10;;;;;;;;;;5010370;28;20402;-79
2023/05/08 12:48:27;;;;;;;11.52;10.43;;;;;;;;;;5025588;28;20083;-75
2023/05/08 12:50:53;;;;;;;10.65;9.55;;;;;;;;;;5027965;28;20701;-76
2023/05/08 12:53:20;;;;;;;10.90;9.85;;;;;;;;;;5010694;28;20143;-78
2023/05/08 12:55:57;;;;;;;10.70;9.05;;;;;;;;;;5027897;28;20037;-75
2023/05/08 12:58:27;;;;;;;11.10;10.05;;;;;;;;;;5025468;28;20113;-75
2023/05/08 13:01:06;;;;;;;14.00;11.23;;;;;;;;;;5008877;28;20131;-78
2023/05/08 13:03:32;;;;;;;;;;;;;;;;;;5026757;28;20505;-75
2023/05/08 13:05:59;;;;;;;12.23;9.82;;;;;;;;;;5020353;28;19921;-76
2023/05/08 13:08:30;;;;;;;11.23;10.05;;;;;;;;;;5006715;28;20033;-76
2023/05/08 13:10:55;;;;;;;11.07;9.98;;;;;;;;;;5020959;28;20030;-78
2023/05/08 13:13:23;;;;;;;15.05;10.98;;;;;;;;;;5024078;28;20468;-79
2023/05/08 13:15:50;;;;;;;11.20;9.80;;;;;;;;;;5024102;28;20045;-77
2023/05/08 13:18:18;;;;;;;9.85;8.85;;;;;;;;;;5024935;28;20060;-77
2023/05/08 13:20:44;;;;;;;10.48;9.40;;;;;;;;;;5025591;28;20088;-80
2023/05/08 13:23:10;;;;;;;11.00;9.75;;;;;;;;;;5022486;28;20480;-79
2023/05/08 13:25:36;;;;;;;10.95;9.82;;;;;;;;;;5027778;28;20041;-79
2023/05/08 13:28:03;;;;;;;9.80;8.90;;;;;;;;;;5024459;28;20099;-78
2023/05/08 13:30:29;;;;;;;10.65;9.63;;;;;;;;;;5025258;28;20072;-80
2023/05/08 13:32:54;;;;;;;10.07;9.07;;;;;;;;;;5005345;28;20064;-77
2023/05/08 13:35:20;;;;;;;9.82;8.82;;;;;;;;;;5024786;28;20045;-79
2023/05/08 13:37:47;;;;;;;10.00;9.00;;;;;;;;;;5006065;28;20036;-77
2023/05/08 13:40:15;;;;;;;11.85;9.90;;;;;;;;;;5026266;28;20477;-79
2023/05/08 13:42:40;;;;;;;10.07;9.18;;;;;;;;;;5008683;28;20052;-80
2023/05/08 13:45:09;;;;;;;10.60;9.55;;;;;;;;;;5026366;28;20033;-79
2023/05/08 13:47:35;;;;;;;11.25;9.82;;;;;;;;;;5027336;28;20034;-78
2023/05/08 13:50:01;;;;;;;10.88;9.40;;;;;;;;;;5026044;28;20045;-76
2023/05/08 13:52:30;;;;;;;10.95;9.95;;;;;;;;;;5027847;28;20045;-77
2023/05/08 13:54:56;;;;;;;10.48;9.43;;;;;;;;;;5024088;28;20396;-77
2023/05/08 13:57:23;;;;;;;11.18;10.07;;;;;;;;;;5026779;28;20044;-78
2023/05/08 13:59:48;;;;;;;10.60;9.55;;;;;;;;;;5007677;28;20444;-76
2023/05/08 14:02:14;;;;;;;10.10;8.88;;;;;;;;;;5025069;28;20045;-80
2023/05/08 14:04:40;;;;;;;9.45;8.57;;;;;;;;;;5024003;28;20060;-76
2023/05/08 14:07:06;;;;;;;8.02;7.22;;;;;;;;;;4989886;28;20029;-78
2023/05/08 14:09:32;;;;;;;11.00;9.90;;;;;;;;;;5001612;28;20120;-80
2023/05/08 14:11:57;;;;;;;10.63;9.70;;;;;;;;;;5021339;28;20116;-80
2023/05/08 14:14:23;;;;;;;10.32;9.32;;;;;;;;;;5029383;28;20485;-77
2023/05/08 14:16:50;;;;;;;9.82;8.93;;;;;;;;;;5027374;28;20092;-77
2023/05/08 14:19:16;;;;;;;10.48;9.32;;;;;;;;;;5028258;28;20049;-79
2023/05/08 14:21:43;;;;;;;9.52;8.55;;;;;;;;;;5025656;28;20116;-79
2023/05/08 14:24:09;;;;;;;10.20;8.02;;;;;;;;;;4993563;28;20076;-76
2023/05/08 14:26:34;;;;;;;10.00;9.02;;;;;;;;;;5025148;28;20497;-76
2023/05/08 14:29:00;;;;;;;9.20;8.20;;;;;;;;;;5004136;28;20366;-77
2023/05/08 14:31:26;;;;;;;8.95;8.05;;;;;;;;;;5022365;28;20049;-78
2023/05/08 14:33:51;;;;;;;9.18;8.27;;;;;;;;;;5024727;28;20033;-76